createdAt,value
2023-03-23T00:12:37.586Z,955.27
2023-03-23T00:27:39.526Z,955.18
2023-03-23T00:42:41.317Z,955.07
2023-03-23T00:57:43.037Z,954.99
2023-03-23T01:12:44.841Z,955.01
2023-03-23T01:27:46.643Z,955.12
2023-03-23T01:42:48.358Z,955.15
2023-03-23T01:57:50.181Z,955.27
2023-03-23T02:12:51.988Z,955.37
2023-03-23T02:27:53.813Z,955.54
2023-03-23T02:42:55.607Z,955.65
2023-03-23T02:57:57.339Z,955.81
2023-03-23T03:12:59.069Z,955.88
2023-03-23T03:28:01.023Z,956.07
2023-03-23T03:43:03.912Z,956.31
2023-03-23T03:58:05.702Z,956.46
2023-03-23T04:13:07.461Z,956.79
2023-03-23T04:28:09.198Z,956.95
2023-03-23T04:43:11.326Z,957.1
2023-03-23T04:58:13.051Z,957.23
2023-03-23T05:13:14.870Z,957.43
2023-03-23T05:28:16.605Z,957.52
2023-03-23T05:43:18.382Z,957.63
2023-03-23T05:58:20.089Z,957.66
2023-03-23T06:13:21.821Z,957.77
2023-03-23T06:28:23.545Z,957.87
2023-03-23T06:43:25.331Z,957.86
2023-03-23T06:58:27.037Z,957.92
2023-03-23T07:13:28.825Z,957.91
2023-03-23T07:28:30.537Z,957.91
2023-03-23T07:43:32.190Z,958.01
2023-03-23T07:58:33.940Z,958.05
2023-03-23T08:13:35.668Z,958.07
2023-03-23T08:28:37.454Z,958.2
2023-03-23T08:43:39.150Z,958.25
2023-03-23T08:58:40.862Z,958.35
2023-03-23T09:13:42.662Z,958.41
2023-03-23T09:28:44.399Z,958.47
2023-03-23T09:43:46.114Z,958.41
2023-03-23T09:58:47.924Z,958.54
2023-03-23T10:13:49.668Z,958.57
2023-03-23T10:28:51.394Z,958.7
2023-03-23T10:43:53.136Z,958.84
2023-03-23T10:58:54.944Z,958.93
2023-03-23T11:13:56.643Z,959.02
2023-03-23T11:28:58.372Z,959.2
2023-03-23T11:44:00.131Z,959.23
2023-03-23T11:59:01.845Z,959.37
2023-03-23T12:14:03.543Z,959.51
2023-03-23T12:29:05.261Z,959.6
2023-03-23T12:44:06.986Z,959.62
2023-03-23T12:59:08.746Z,959.6
2023-03-23T13:14:10.472Z,959.76
2023-03-23T13:29:12.190Z,959.73
2023-03-23T13:44:13.829Z,959.98
2023-03-23T13:59:15.509Z,960.05
2023-03-23T14:14:17.268Z,960.04
2023-03-23T14:29:19.008Z,960.15
2023-03-23T14:44:20.889Z,960.16
2023-03-23T14:59:22.577Z,960.19
2023-03-23T15:14:24.331Z,960.16
2023-03-23T15:29:26.532Z,960.2
2023-03-23T15:44:28.560Z,960.18
2023-03-23T15:59:30.309Z,960.19
2023-03-23T16:14:32.093Z,960.1
2023-03-23T16:29:54.341Z,960.07
2023-03-23T16:45:04.462Z,959.91
2023-03-23T17:00:06.334Z,959.79
2023-03-23T17:15:08.089Z,959.76
2023-03-23T17:30:10.842Z,959.63
2023-03-23T17:45:12.712Z,959.56
2023-03-23T18:00:14.413Z,959.4
2023-03-23T18:15:16.103Z,959.25
2023-03-23T18:30:18.050Z,958.95
2023-03-23T18:45:19.741Z,958.72
2023-03-23T19:00:21.707Z,958.49
2023-03-23T19:15:23.491Z,958.22
2023-03-23T19:30:25.210Z,957.96
2023-03-23T19:45:26.903Z,957.66
2023-03-23T20:00:28.659Z,957.44
2023-03-23T20:15:30.414Z,957.29
2023-03-23T20:30:32.140Z,957.04
2023-03-23T20:45:34.049Z,956.88
2023-03-23T21:00:35.762Z,956.71
2023-03-23T21:15:37.512Z,956.65
2023-03-23T21:30:39.219Z,956.67
2023-03-23T21:45:41.038Z,956.7
2023-03-23T22:00:45.006Z,957.01
2023-03-23T22:15:47.474Z,957.72
2023-03-23T22:30:49.236Z,958.03
2023-03-23T22:45:51.037Z,958.15
2023-03-23T23:00:52.795Z,958.28
2023-03-23T23:15:54.574Z,958.09
2023-03-23T23:30:56.343Z,958
2023-03-23T23:45:58.181Z,958.01
